Terminal Aerodrome Forecast
Issued by NWS Tulsa, OK

Home | Current Version | Previous Version | Text Only | Print | Product List | Glossary On
Versions: 1 2 3 4 5 6 7 8 9 10 11 12 13 14 15 16 17
119
FTUS44 KTSA 051304 AAA
TAFTUL
TAF AMD
KTUL 051304Z 0513/0612 15003KT 1SM BR SCT005 BKN250
      TEMPO 0513/0515 1/2SM FG VV003
     FM051600 15008KT P6SM SCT040 BKN150
     FM052000 16012KT P6SM SCT030 BKN120
     FM060100 15005KT P6SM BKN050 OVC100
     FM060800 36005KT P6SM OVC025=

USA.gov is the U.S. government's official web portal to all federal, state and local government web resources and services.